首页
METAR-TAF:

METAR-TAF

机场 :

Araxos, 希腊

纬度: 38-09N, 经度: 021-25E, 海拔: 11米

当前天气观测

该预报发布于16分钟前的21:50 UTC
风速12节,风向东转东北
温度 13°C
湿度 82%
气压 1005 hPa
能见度10公里或以上
少量云层高于2500英尺

METAR: LGRX 112150Z 06012KT 9999 FEW025 13/10 Q1005 RMK FEW080 SCT180 BLU

时间: 00:06 (22:06 UTC)

预报

该预报发布于2小时和6分钟前的20:00 UTC
预报有效从11日的 21点(UTC)到 12日的 06点(UTC)
风速6节,风向
能见度10公里或以上
散云层高于2000英尺
散云层高于8000英尺
成为
从 12日的 00点(UTC)到 12日的 02点(UTC)
少量云层高于2500英尺

TAF: LGRX 112000Z 1121/1206 08006KT 9999 SCT020 SCT080 BECMG 1200/1202 FEW025

超过4000个机场的气象观测和天气预报(METAR&TAF报告)。

可查询的气象台以黄色和红色小点在地图上表示。

将鼠标移到小点上方,可查看气象台名称。

然后点击查看天气观测和预报。

如需切换地图:点击带黑十字的绿色按钮放大地图;点击带横线的绿色按钮缩小地图;或者点击绿色箭头查看邻近地区的地图。


METAR-TAF: